^^
Meteo Knjazevac Station Historical Data
Daily Summary for July 01, 2022 Units:  Both    English   Metric
Daily Weekly Monthly Yearly Custom
  High: Low: Average:
Temperature: 96.9 °F /  36.1 °C 61.5 °F /  16.4 °C 76.1 °F /  24.5 °C
Dew Point: 72.7 °F /  22.6 °C 60.1 °F /  15.6 °C 65.8 °F /  18.8 °C
Humidity: 96% 37% 75%
Wind Speed: 7mph /  11.3km/h - 1.5mph /  2.4km/h
Wind Gust: 11mph /  17.7km/h - -
Wind- - SSW
Pressure: 30.05 in /  1017.5 hPa 29.97 in /  1014.8 hPa -
Precipitation: 0.00 in /  0 mm    
Historical Graphs
 
 
Tabular Data for July 01, 2022
Time Temperature Dew Point Pressure Wind Wind Speed Wind Gust Humidity Rainfall Rate (Hourly) solar Conditions
00:00 69.4 °F /  20.8 °C 64.7 °F /  18.2 °C 30.00in /  1015.8hPa NW 1mph /  1.6km/h 2mph /  3.2km/h 85% 0.00in /  0mm 0 W/m2
00:10 68.9 °F /  20.5 °C 64.5 °F /  18.1 °C 30.00in /  1015.8hPa Calm   2mph /  3.2km/h 86% 0.00in /  0mm 0 W/m2
00:30 67.8 °F /  19.9 °C 64.1 °F /  17.8 °C 30.00in /  1015.8hPa WNW 1mph /  1.6km/h 3mph /  4.8km/h 88% 0.00in /  0mm 0 W/m2
00:40 67.6 °F /  19.8 °C 64 °F /  17.8 °C 30.00in /  1015.8hPa WNW 1mph /  1.6km/h 3mph /  4.8km/h 88% 0.00in /  0mm 0 W/m2
00:50 67.3 °F /  19.6 °C 63.6 °F /  17.6 °C 30.00in /  1015.8hPa Calm   3mph /  4.8km/h 88% 0.00in /  0mm 0 W/m2
01:00 66.9 °F /  19.4 °C 63.2 °F /  17.3 °C 30.00in /  1015.8hPa West 2mph /  3.2km/h 3mph /  4.8km/h 88% 0.00in /  0mm 0 W/m2
01:10 66.6 °F /  19.2 °C 63.2 °F /  17.3 °C 30.00in /  1015.8hPa West 3mph /  4.8km/h 7mph /  11.3km/h 89% 0.00in /  0mm 0 W/m2
01:20 66.4 °F /  19.1 °C 63 °F /  17.2 °C 30.00in /  1015.8hPa West 2mph /  3.2km/h 4mph /  6.4km/h 89% 0.00in /  0mm 0 W/m2
01:30 66.2 °F /  19 °C 62.8 °F /  17.1 °C 30.01in /  1016.1hPa WSW 1mph /  1.6km/h 3mph /  4.8km/h 89% 0.00in /  0mm 0 W/m2
01:40 65.8 °F /  18.8 °C 62.5 °F /  16.9 °C 30.01in /  1016.1hPa WNW 1mph /  1.6km/h 2mph /  3.2km/h 89% 0.00in /  0mm 0 W/m2
01:50 65.7 °F /  18.7 °C 62.6 °F /  17 °C 30.01in /  1016.1hPa WNW 1mph /  1.6km/h 2mph /  3.2km/h 90% 0.00in /  0mm 0 W/m2
02:00 65.5 °F /  18.6 °C 62.5 °F /  16.9 °C 30.01in /  1016.1hPa Calm   4mph /  6.4km/h 90% 0.00in /  0mm 0 W/m2
02:10 65.3 °F /  18.5 °C 62.3 °F /  16.8 °C 30.01in /  1016.1hPa WNW 1mph /  1.6km/h 3mph /  4.8km/h 90% 0.00in /  0mm 0 W/m2
02:20 64.9 °F /  18.3 °C 62.2 °F /  16.8 °C 30.01in /  1016.1hPa West 1mph /  1.6km/h 3mph /  4.8km/h 91% 0.00in /  0mm 0 W/m2
02:30 64.6 °F /  18.1 °C 61.9 °F /  16.6 °C 30.01in /  1016.1hPa West 2mph /  3.2km/h 3mph /  4.8km/h 91% 0.00in /  0mm 0 W/m2
02:40 64.4 °F /  18 °C 61.7 °F /  16.5 °C 30.01in /  1016.1hPa SW 1mph /  1.6km/h 3mph /  4.8km/h 91% 0.00in /  0mm 0 W/m2
02:50 64 °F /  17.8 °C 61.4 °F /  16.3 °C 30.01in /  1016.1hPa NW 1mph /  1.6km/h 2mph /  3.2km/h 91% 0.00in /  0mm 0 W/m2
03:00 63.9 °F /  17.7 °C 61.8 °F /  16.6 °C 30.02in /  1016.5hPa Calm   2mph /  3.2km/h 93% 0.00in /  0mm 0 W/m2
03:10 63.9 °F /  17.7 °C 61.8 °F /  16.6 °C 30.01in /  1016.1hPa Calm   2mph /  3.2km/h 93% 0.00in /  0mm 0 W/m2
03:30 63.3 °F /  17.4 °C 61.3 °F /  16.3 °C 30.02in /  1016.5hPa West 1mph /  1.6km/h 2mph /  3.2km/h 93% 0.00in /  0mm 0 W/m2
03:40 63.1 °F /  17.3 °C 61.1 °F /  16.2 °C 30.02in /  1016.5hPa WNW 1mph /  1.6km/h 3mph /  4.8km/h 93% 0.00in /  0mm 0 W/m2
03:50 63 °F /  17.2 °C 61.2 °F /  16.2 °C 30.02in /  1016.5hPa WNW 2mph /  3.2km/h 3mph /  4.8km/h 94% 0.00in /  0mm 0 W/m2
04:00 62.8 °F /  17.1 °C 60.7 °F /  15.9 °C 30.03in /  1016.8hPa West 1mph /  1.6km/h 2mph /  3.2km/h 93% 0.00in /  0mm 0 W/m2
04:10 62.7 °F /  17.1 °C 61 °F /  16.1 °C 30.03in /  1016.8hPa WNW 1mph /  1.6km/h 3mph /  4.8km/h 94% 0.00in /  0mm 0 W/m2
04:20 62.6 °F /  17 °C 60.8 °F /  16 °C 30.03in /  1016.8hPa West 3mph /  4.8km/h 5mph /  8km/h 94% 0.00in /  0mm 0 W/m2
04:30 62.2 °F /  16.8 °C 60.5 °F /  15.8 °C 30.03in /  1016.8hPa West 2mph /  3.2km/h 5mph /  8km/h 94% 0.00in /  0mm 0 W/m2
04:40 62.2 °F /  16.8 °C 60.5 °F /  15.8 °C 30.03in /  1016.8hPa WNW 1mph /  1.6km/h 4mph /  6.4km/h 94% 0.00in /  0mm 0 W/m2
04:50 62.1 °F /  16.7 °C 60.3 °F /  15.7 °C 30.03in /  1016.8hPa WSW 2mph /  3.2km/h 2mph /  3.2km/h 94% 0.00in /  0mm 0 W/m2
05:00 61.7 °F /  16.5 °C 60.3 °F /  15.7 °C 30.03in /  1016.8hPa West 2mph /  3.2km/h 5mph /  8km/h 95% 0.00in /  0mm 6 W/m2
05:10 61.7 °F /  16.5 °C 60.5 °F /  15.8 °C 30.03in /  1016.8hPa West 3mph /  4.8km/h 5mph /  8km/h 96% 0.00in /  0mm 11 W/m2
05:20 61.7 °F /  16.5 °C 60.3 °F /  15.7 °C 30.04in /  1017.2hPa West 2mph /  3.2km/h 6mph /  9.7km/h 95% 0.00in /  0mm 19 W/m2
05:30 61.7 °F /  16.5 °C 60.3 °F /  15.7 °C 30.04in /  1017.2hPa Calm   5mph /  8km/h 95% 0.00in /  0mm 27 W/m2
05:40 61.7 °F /  16.5 °C 60.3 °F /  15.7 °C 30.04in /  1017.2hPa Calm   2mph /  3.2km/h 95% 0.00in /  0mm 33 W/m2
05:50 61.5 °F /  16.4 °C 60.1 °F /  15.6 °C 30.04in /  1017.2hPa WSW 1mph /  1.6km/h 3mph /  4.8km/h 95% 0.00in /  0mm 46 W/m2
06:00 61.7 °F /  16.5 °C 60.3 °F /  15.7 °C 30.04in /  1017.2hPa West 1mph /  1.6km/h 3mph /  4.8km/h 95% 0.00in /  0mm 85 W/m2
06:10 61.9 °F /  16.6 °C 60.7 °F /  15.9 °C 30.04in /  1017.2hPa WNW 1mph /  1.6km/h 4mph /  6.4km/h 96% 0.00in /  0mm 67 W/m2
06:20 62.1 °F /  16.7 °C 60.6 °F /  15.9 °C 30.04in /  1017.2hPa West 1mph /  1.6km/h 2mph /  3.2km/h 95% 0.00in /  0mm 130 W/m2
06:30 62.2 °F /  16.8 °C 60.8 °F /  16 °C 30.04in /  1017.2hPa Calm   2mph /  3.2km/h 95% 0.00in /  0mm 154 W/m2
06:40 62.5 °F /  16.9 °C 61.3 °F /  16.3 °C 30.04in /  1017.2hPa West 1mph /  1.6km/h 2mph /  3.2km/h 96% 0.00in /  0mm 179 W/m2
07:00 63.7 °F /  17.6 °C 62.5 °F /  16.9 °C 30.04in /  1017.2hPa Calm   2mph /  3.2km/h 96% 0.00in /  0mm 241 W/m2
07:10 64.4 °F /  18 °C 63.2 °F /  17.3 °C 30.05in /  1017.5hPa Calm   3mph /  4.8km/h 96% 0.00in /  0mm 273 W/m2
07:20 65 °F /  18.3 °C 63.5 °F /  17.5 °C 30.05in /  1017.5hPa NW 1mph /  1.6km/h 3mph /  4.8km/h 95% 0.00in /  0mm 308 W/m2
07:30 65.7 °F /  18.7 °C 63.9 °F /  17.7 °C 30.05in /  1017.5hPa Calm   2mph /  3.2km/h 94% 0.00in /  0mm 344 W/m2
07:40 66.4 °F /  19.1 °C 64.4 °F /  18 °C 30.05in /  1017.5hPa SW 1mph /  1.6km/h 2mph /  3.2km/h 93% 0.00in /  0mm 377 W/m2
08:00 68.2 °F /  20.1 °C 65.5 °F /  18.6 °C 30.05in /  1017.5hPa Calm   2mph /  3.2km/h 91% 0.00in /  0mm 438 W/m2
08:10 69 °F /  20.6 °C 65.9 °F /  18.8 °C 30.05in /  1017.5hPa North 1mph /  1.6km/h 5mph /  8km/h 90% 0.00in /  0mm 472 W/m2
08:20 70.6 °F /  21.4 °C 67.2 °F /  19.6 °C 30.05in /  1017.5hPa North 3mph /  4.8km/h 5mph /  8km/h 89% 0.00in /  0mm 505 W/m2
08:30 72.7 °F /  22.6 °C 66.9 °F /  19.4 °C 30.05in /  1017.5hPa North 1mph /  1.6km/h 5mph /  8km/h 82% 0.00in /  0mm 537 W/m2
08:40 74.5 °F /  23.6 °C 67.6 °F /  19.8 °C 30.05in /  1017.5hPa NE 1mph /  1.6km/h 6mph /  9.7km/h 79% 0.00in /  0mm 568 W/m2
08:50 76.2 °F /  24.6 °C 68.8 °F /  20.4 °C 30.05in /  1017.5hPa ENE 1mph /  1.6km/h 3mph /  4.8km/h 78% 0.00in /  0mm 600 W/m2
09:00 77.8 °F /  25.4 °C 69.2 °F /  20.7 °C 30.05in /  1017.5hPa NNW 1mph /  1.6km/h 4mph /  6.4km/h 75% 0.00in /  0mm 632 W/m2
09:10 79.2 °F /  26.2 °C 69.8 °F /  21 °C 30.05in /  1017.5hPa West 1mph /  1.6km/h 3mph /  4.8km/h 73% 0.00in /  0mm 661 W/m2
09:20 80.4 °F /  26.9 °C 70.6 °F /  21.4 °C 30.05in /  1017.5hPa WSW 1mph /  1.6km/h 2mph /  3.2km/h 72% 0.00in /  0mm 689 W/m2
09:30 81.7 °F /  27.6 °C 70.5 °F /  21.4 °C 30.04in /  1017.2hPa West 1mph /  1.6km/h 3mph /  4.8km/h 69% 0.00in /  0mm 714 W/m2
09:40 82.6 °F /  28.1 °C 70.9 °F /  21.6 °C 30.04in /  1017.2hPa NNE 2mph /  3.2km/h 5mph /  8km/h 68% 0.00in /  0mm 744 W/m2
09:50 83.5 °F /  28.6 °C 71.4 °F /  21.9 °C 30.04in /  1017.2hPa NE 1mph /  1.6km/h 5mph /  8km/h 67% 0.00in /  0mm 769 W/m2
10:00 84.2 °F /  29 °C 71.2 °F /  21.8 °C 30.04in /  1017.2hPa North 1mph /  1.6km/h 5mph /  8km/h 65% 0.00in /  0mm 790 W/m2
10:10 85 °F /  29.4 °C 71.4 °F /  21.9 °C 30.04in /  1017.2hPa North 1mph /  1.6km/h 6mph /  9.7km/h 64% 0.00in /  0mm 813 W/m2
10:20 85.6 °F /  29.8 °C 71.1 °F /  21.7 °C 30.04in /  1017.2hPa Calm   3mph /  4.8km/h 62% 0.00in /  0mm 833 W/m2
10:30 86.4 °F /  30.2 °C 72.7 °F /  22.6 °C 30.04in /  1017.2hPa WNW 1mph /  1.6km/h 4mph /  6.4km/h 64% 0.00in /  0mm 854 W/m2
10:50 87.4 °F /  30.8 °C 71.3 °F /  21.8 °C 30.04in /  1017.2hPa ESE 1mph /  1.6km/h 5mph /  8km/h 59% 0.00in /  0mm 657 W/m2
11:00 88 °F /  31.1 °C 70.8 °F /  21.6 °C 30.04in /  1017.2hPa NNE 1mph /  1.6km/h 5mph /  8km/h 57% 0.00in /  0mm 913 W/m2
11:10 88.6 °F /  31.4 °C 71.9 °F /  22.2 °C 30.03in /  1016.8hPa NE 3mph /  4.8km/h 6mph /  9.7km/h 58% 0.00in /  0mm 926 W/m2
11:20 89.1 °F /  31.7 °C 69.7 °F /  20.9 °C 30.03in /  1016.8hPa NE 1mph /  1.6km/h 6mph /  9.7km/h 53% 0.00in /  0mm 146 W/m2
11:30 89.4 °F /  31.9 °C 71.1 °F /  21.7 °C 30.03in /  1016.8hPa West 1mph /  1.6km/h 8mph /  12.9km/h 55% 0.00in /  0mm 947 W/m2
11:40 90 °F /  32.2 °C 70.6 °F /  21.4 °C 30.03in /  1016.8hPa NE 1mph /  1.6km/h 5mph /  8km/h 53% 0.00in /  0mm 955 W/m2
11:50 90.7 °F /  32.6 °C 71.7 °F /  22.1 °C 30.03in /  1016.8hPa NNE 3mph /  4.8km/h 6mph /  9.7km/h 54% 0.00in /  0mm 963 W/m2
12:10 91.8 °F /  33.2 °C 71.6 °F /  22 °C 30.02in /  1016.5hPa NNE 3mph /  4.8km/h 7mph /  11.3km/h 52% 0.00in /  0mm 348 W/m2
12:20 92.1 °F /  33.4 °C 69.6 °F /  20.9 °C 30.02in /  1016.5hPa NNE 3mph /  4.8km/h 7mph /  11.3km/h 48% 0.00in /  0mm 248 W/m2
12:30 92.3 °F /  33.5 °C 69.8 °F /  21 °C 30.02in /  1016.5hPa NNE 5mph /  8km/h 8mph /  12.9km/h 48% 0.00in /  0mm 717 W/m2
12:40 92.7 °F /  33.7 °C 70.2 °F /  21.2 °C 30.01in /  1016.1hPa North 2mph /  3.2km/h 6mph /  9.7km/h 48% 0.00in /  0mm 279 W/m2
12:50 93.4 °F /  34.1 °C 68.9 °F /  20.5 °C 30.01in /  1016.1hPa North 3mph /  4.8km/h 7mph /  11.3km/h 45% 0.00in /  0mm 405 W/m2
13:10 94 °F /  34.4 °C 66.7 °F /  19.3 °C 30.01in /  1016.1hPa South 1mph /  1.6km/h 6mph /  9.7km/h 41% 0.00in /  0mm 965 W/m2
13:20 94.5 °F /  34.7 °C 67.8 °F /  19.9 °C 30.00in /  1015.8hPa ESE 3mph /  4.8km/h 7mph /  11.3km/h 42% 0.00in /  0mm 958 W/m2
13:30 94.6 °F /  34.8 °C 67.3 °F /  19.6 °C 30.00in /  1015.8hPa East 3mph /  4.8km/h 7mph /  11.3km/h 41% 0.00in /  0mm 951 W/m2
13:50 95.2 °F /  35.1 °C 67.8 °F /  19.9 °C 29.99in /  1015.5hPa North 1mph /  1.6km/h 6mph /  9.7km/h 41% 0.00in /  0mm 930 W/m2
14:00 95.3 °F /  35.2 °C 69.2 °F /  20.7 °C 29.99in /  1015.5hPa East 2mph /  3.2km/h 6mph /  9.7km/h 43% 0.00in /  0mm 918 W/m2
14:10 95.4 °F /  35.2 °C 69.3 °F /  20.7 °C 29.99in /  1015.5hPa NE 2mph /  3.2km/h 11mph /  17.7km/h 43% 0.00in /  0mm 905 W/m2
14:20 95.9 °F /  35.5 °C 69.8 °F /  21 °C 29.99in /  1015.5hPa North 2mph /  3.2km/h 7mph /  11.3km/h 43% 0.00in /  0mm 890 W/m2
14:30 96.3 °F /  35.7 °C 69.4 °F /  20.8 °C 29.98in /  1015.1hPa Calm   5mph /  8km/h 42% 0.00in /  0mm 873 W/m2
14:40 96.4 °F /  35.8 °C 70.3 °F /  21.3 °C 29.98in /  1015.1hPa NE 7mph /  11.3km/h 10mph /  16.1km/h 43% 0.00in /  0mm 856 W/m2
14:50 96.2 °F /  35.7 °C 65.7 °F /  18.7 °C 29.98in /  1015.1hPa ESE 2mph /  3.2km/h 7mph /  11.3km/h 37% 0.00in /  0mm 837 W/m2
15:00 96.1 °F /  35.6 °C 67.1 °F /  19.5 °C 29.98in /  1015.1hPa South 2mph /  3.2km/h 6mph /  9.7km/h 39% 0.00in /  0mm 817 W/m2
15:10 96.4 °F /  35.8 °C 69.6 °F /  20.9 °C 29.98in /  1015.1hPa NNE 2mph /  3.2km/h 6mph /  9.7km/h 42% 0.00in /  0mm 796 W/m2
15:20 96.6 °F /  35.9 °C 70.5 °F /  21.4 °C 29.98in /  1015.1hPa ENE 3mph /  4.8km/h 7mph /  11.3km/h 43% 0.00in /  0mm 774 W/m2
15:30 96.8 °F /  36 °C 70.6 °F /  21.4 °C 29.97in /  1014.8hPa East 5mph /  8km/h 6mph /  9.7km/h 43% 0.00in /  0mm 751 W/m2
15:40 96.9 °F /  36.1 °C 72 °F /  22.2 °C 29.97in /  1014.8hPa NNE 3mph /  4.8km/h 6mph /  9.7km/h 45% 0.00in /  0mm 727 W/m2
16:10 96.6 °F /  35.9 °C 71.8 °F /  22.1 °C 29.97in /  1014.8hPa NW 3mph /  4.8km/h 9mph /  14.5km/h 45% 0.00in /  0mm 649 W/m2
Knjazevac, Serbia
Compliments of Weather Underground - 2 mb